Time;durP1;ratioP1;P1;durP2;ratioP2;P2;SDS_P1;SDS_P2;PMS_P1;PMS_P2;Temp;Humidity;BMP_temperature;BMP_pressure;BME280_temperature;BME280_humidity;BME280_pressure;Samples;Min_cycle;Max_cycle;Signal;HPM_P1;HPM_P2
2022/04/09 00:00:18;;;;;;;8.05;2.70;;;;;;;3.40;97.33;99503.72;685224;28;1684;-79
2022/04/09 00:00:38;;;;;;;9.82;2.38;;;;;;;3.37;97.47;99504.56;685043;28;1809;-79
2022/04/09 00:00:59;;;;;;;8.73;2.40;;;;;;;3.36;98.30;99502.81;683358;28;4460;-79
2022/04/09 00:01:19;;;;;;;11.65;2.45;;;;;;;3.35;98.05;99505.41;683271;28;1360;-79
2022/04/09 00:01:39;;;;;;;9.23;2.40;;;;;;;3.35;98.26;99510.56;682819;28;1315;-79
2022/04/09 00:02:00;;;;;;;8.13;2.40;;;;;;;3.35;98.38;99515.75;682987;28;1244;-80
2022/04/09 00:02:20;;;;;;;7.40;2.60;;;;;;;3.36;98.82;99513.16;683079;28;1493;-79
2022/04/09 00:02:41;;;;;;;6.57;2.30;;;;;;;3.35;98.04;99511.47;682262;28;1689;-79
2022/04/09 00:03:01;;;;;;;9.37;2.40;;;;;;;3.33;98.58;99509.72;680171;28;1391;-80
2022/04/09 00:03:22;;;;;;;8.30;2.30;;;;;;;3.35;97.64;99511.47;682545;28;1411;-80
2022/04/09 00:03:43;;;;;;;8.47;2.33;;;;;;;3.34;97.69;99509.72;680383;28;1304;-79
2022/04/09 00:04:03;;;;;;;9.13;2.78;;;;;;;3.39;98.54;99512.31;683897;28;4685;-79
2022/04/09 00:04:24;;;;;;;8.82;2.90;;;;;;;3.39;98.19;99514.91;687228;28;1460;-79
2022/04/09 00:04:44;;;;;;;7.00;2.50;;;;;;;3.38;98.11;99511.47;686859;28;1298;-79
2022/04/09 00:05:05;;;;;;;9.05;2.85;;;;;;;3.43;98.60;99510.63;687616;28;1399;-79
2022/04/09 00:05:26;;;;;;;7.82;2.63;;;;;;;3.39;98.12;99518.38;682869;28;1404;-79
2022/04/09 00:05:47;;;;;;;8.32;2.63;;;;;;;3.35;98.37;99515.75;677888;29;1334;-80
2022/04/09 00:06:07;;;;;;;11.48;2.75;;;;;;;3.34;98.14;99517.47;679760;29;1355;-80
2022/04/09 00:06:27;;;;;;;11.07;2.77;;;;;;;3.35;99.25;99519.22;680196;29;1388;-79
2022/04/09 00:06:48;;;;;;;9.67;2.63;;;;;;;3.35;99.33;99518.31;679394;29;1667;-79
2022/04/09 00:07:08;;;;;;;9.37;2.70;;;;;;;3.33;99.15;99518.31;687605;28;4468;-79
2022/04/09 00:07:28;;;;;;;8.63;2.50;;;;;;;3.30;99.97;99517.44;686227;28;1465;-79
2022/04/09 00:07:49;;;;;;;8.52;2.63;;;;;;;3.28;99.39;99525.19;687438;28;986;-79
2022/04/09 00:08:09;;;;;;;8.50;2.90;;;;;;;3.28;99.81;99527.78;685537;28;1563;-79
2022/04/09 00:08:30;;;;;;;7.28;2.78;;;;;;;3.28;100.00;99525.19;685720;28;1684;-79
2022/04/09 00:08:51;;;;;;;8.43;2.70;;;;;;;3.29;99.64;99516.56;680298;28;1552;-79
2022/04/09 00:09:12;;;;;;;8.68;2.78;;;;;;;3.47;99.29;99509.78;675745;29;1478;-79
2022/04/09 00:09:32;;;;;;;9.65;2.70;;;;;;;3.41;99.21;99519.22;679622;29;1353;-79
2022/04/09 00:09:53;;;;;;;8.23;2.70;;;;;;;3.36;99.14;99523.50;680667;29;1314;-80
2022/04/09 00:10:14;;;;;;;8.02;3.20;;;;;;;3.41;99.15;99532.16;676977;29;4227;-80
2022/04/09 00:10:35;;;;;;;7.65;2.80;;;;;;;3.37;98.53;99525.22;680557;28;1401;-79
2022/04/09 00:10:55;;;;;;;7.22;2.72;;;;;;;3.36;98.87;99531.25;682605;28;1432;-79
2022/04/09 00:11:15;;;;;;;7.70;2.70;;;;;;;3.31;98.93;99524.31;680705;28;1923;-79
2022/04/09 00:11:36;;;;;;;7.28;2.75;;;;;;;3.29;99.51;99521.72;681075;28;1762;-79
2022/04/09 00:11:56;;;;;;;8.63;2.90;;;;;;;3.28;99.14;99535.53;678507;28;1377;-79
2022/04/09 00:12:16;;;;;;;8.63;3.20;;;;;;;3.26;99.10;99532.06;678690;28;1666;-79
2022/04/09 00:12:38;;;;;;;9.57;3.50;;;;;;;3.30;99.54;99526.06;683026;28;1794;-80
2022/04/09 00:12:59;;;;;;;8.90;3.55;;;;;;;3.32;99.18;99526.91;682420;28;4534;-79
2022/04/09 00:13:19;;;;;;;9.80;3.53;;;;;;;3.32;99.44;99528.66;682606;28;876;-79
2022/04/09 00:13:41;;;;;;;7.85;3.15;;;;;;;3.29;98.91;99532.06;683308;28;1592;-79
2022/04/09 00:14:01;;;;;;;8.80;3.22;;;;;;;3.27;99.30;99538.06;682936;28;1839;-79
2022/04/09 00:14:22;;;;;;;9.20;3.40;;;;;;;3.23;99.12;99537.22;679536;28;1557;-79
2022/04/09 00:14:42;;;;;;;10.80;3.60;;;;;;;3.27;99.53;99536.38;682332;28;1573;-79
2022/04/09 00:15:03;;;;;;;9.00;3.40;;;;;;;3.25;99.36;99535.47;682361;28;1264;-79
2022/04/09 00:15:24;;;;;;;8.63;3.38;;;;;;;3.29;99.23;99536.38;682265;28;1939;-79
2022/04/09 00:15:44;;;;;;;8.23;3.20;;;;;;;3.31;98.99;99539.81;682554;28;1185;-80
2022/04/09 00:16:04;;;;;;;7.47;3.10;;;;;;;3.34;99.67;99539.88;684003;28;5399;-79
2022/04/09 00:16:25;;;;;;;9.10;3.33;;;;;;;3.31;99.17;99535.53;680676;28;1054;-79
2022/04/09 00:16:45;;;;;;;8.17;3.10;;;;;;;3.36;98.60;99544.16;677129;29;1487;-79
2022/04/09 00:17:08;;;;;;;8.50;3.20;;;;;;;3.38;99.07;99542.47;675004;29;1306;-79
2022/04/09 00:17:36;;;;;;;10.30;3.40;;;;;;;3.39;98.49;99544.22;675941;29;1294;-79
2022/04/09 00:17:56;;;;;;;10.23;3.80;;;;;;;3.35;98.93;99542.47;678939;29;1340;-79
2022/04/09 00:18:17;;;;;;;9.77;3.28;;;;;;;3.36;99.22;99543.31;682461;28;1597;-80
2022/04/09 00:18:37;;;;;;;8.83;3.07;;;;;;;3.34;99.41;99545.88;681341;28;1331;-80
2022/04/09 00:18:58;;;;;;;10.88;3.30;;;;;;;3.35;99.66;99542.47;679134;28;4440;-80
2022/04/09 00:19:18;;;;;;;8.23;3.40;;;;;;;3.35;99.07;99563.13;677727;29;1707;-80
2022/04/09 00:19:39;;;;;;;8.90;3.40;;;;;;;3.36;99.03;99546.75;673449;29;1507;-79
2022/04/09 00:19:59;;;;;;;8.07;3.15;;;;;;;3.33;98.87;99546.72;674110;29;1067;-79
2022/04/09 00:20:20;;;;;;;7.77;2.97;;;;;;;3.32;99.30;99550.16;676300;29;1428;-80
2022/04/09 00:20:40;;;;;;;9.15;2.90;;;;;;;3.31;99.40;99550.16;675167;29;1273;-79
2022/04/09 00:21:00;;;;;;;6.50;2.90;;;;;;;3.31;99.02;99556.22;679625;28;1561;-79
2022/04/09 00:21:21;;;;;;;8.52;2.85;;;;;;;3.30;99.96;99548.44;682468;28;1228;-79
2022/04/09 00:21:41;;;;;;;10.90;2.93;;;;;;;3.28;99.40;99553.63;684476;28;1576;-79
2022/04/09 00:22:03;;;;;;;10.15;3.38;;;;;;;3.50;98.84;99548.56;682594;28;4339;-80
2022/04/09 00:22:23;;;;;;;7.82;2.70;;;;;;;3.45;99.21;99545.06;681330;28;1416;-79
2022/04/09 00:22:45;;;;;;;7.65;2.78;;;;;;;3.40;99.34;99552.81;681394;28;1435;-79
2022/04/09 00:23:05;;;;;;;8.90;3.15;;;;;;;3.41;99.79;99557.13;682484;28;1415;-79
2022/04/09 00:23:25;;;;;;;7.30;3.05;;;;;;;3.38;99.29;99557.97;681612;28;1019;-80
2022/04/09 00:23:46;;;;;;;7.20;2.93;;;;;;;3.36;99.60;99554.50;680507;29;1411;-79
2022/04/09 00:24:07;;;;;;;9.02;2.90;;;;;;;3.35;100.00;99557.97;675386;29;1366;-79
2022/04/09 00:24:27;;;;;;;6.97;2.70;;;;;;;3.34;100.00;99558.81;676714;29;1156;-79
2022/04/09 00:24:48;;;;;;;6.67;2.70;;;;;;;3.31;100.00;99557.91;675956;29;1157;-79
2022/04/09 00:25:10;;;;;;;9.52;3.13;;;;;;;3.35;100.00;99552.78;676974;29;4319;-79
2022/04/09 00:25:33;;;;;;;8.77;2.80;;;;;;;3.40;99.64;99556.25;676255;29;1425;-79
2022/04/09 00:25:53;;;;;;;9.18;2.80;;;;;;;3.38;99.40;99562.28;680128;29;1389;-80
2022/04/09 00:26:14;;;;;;;8.00;2.80;;;;;;;3.36;99.81;99559.66;682947;28;1096;-79
2022/04/09 00:26:34;;;;;;;7.25;3.00;;;;;;;3.34;99.61;99556.22;683161;28;1324;-80
2022/04/09 00:26:55;;;;;;;9.25;3.00;;;;;;;3.36;99.83;99558.81;680111;28;1271;-79
2022/04/09 00:27:15;;;;;;;8.43;2.73;;;;;;;3.33;99.90;99567.41;677654;29;1346;-79
2022/04/09 00:27:36;;;;;;;9.20;2.85;;;;;;;3.32;99.39;99569.97;680280;28;1490;-79
2022/04/09 00:27:56;;;;;;;8.25;2.83;;;;;;;3.33;100.00;99559.66;677103;28;4382;-79
2022/04/09 00:28:17;;;;;;;8.93;2.75;;;;;;;3.35;99.16;99557.06;682194;28;1467;-79
2022/04/09 00:28:38;;;;;;;8.27;2.60;;;;;;;3.43;100.00;99568.31;684466;28;1204;-79
2022/04/09 00:28:58;;;;;;;8.15;3.00;;;;;;;3.40;99.78;99573.47;682274;28;1392;-80
2022/04/09 00:29:19;;;;;;;9.90;2.73;;;;;;;3.38;100.00;99568.31;681519;28;1189;-79
2022/04/09 00:29:39;;;;;;;9.38;3.05;;;;;;;3.38;99.33;99563.13;681912;28;1344;-79
2022/04/09 00:30:02;;;;;;;8.75;2.83;;;;;;;3.40;100.00;99571.75;681073;28;1241;-79
2022/04/09 00:30:22;;;;;;;8.63;2.85;;;;;;;3.48;99.47;99576.97;683058;28;977;-80
2022/04/09 00:30:43;;;;;;;10.10;2.70;;;;;;;3.43;98.88;99570.91;680929;28;1311;-79
2022/04/09 00:31:03;;;;;;;8.43;2.90;;;;;;;3.41;99.70;99568.31;678255;28;4450;-79
2022/04/09 00:31:24;;;;;;;9.20;3.15;;;;;;;3.41;99.61;99568.31;680041;28;1353;-79
2022/04/09 00:31:44;;;;;;;9.40;2.43;;;;;;;3.45;99.58;99568.34;680593;28;936;-79
2022/04/09 00:32:05;;;;;;;7.83;2.40;;;;;;;3.44;99.35;99570.06;680146;29;1317;-79
2022/04/09 00:32:25;;;;;;;8.02;2.40;;;;;;;3.46;99.24;99572.66;678705;28;1111;-79
2022/04/09 00:32:46;;;;;;;9.47;2.40;;;;;;;3.40;98.79;99571.75;678598;28;931;-79
2022/04/09 00:33:07;;;;;;;8.95;2.50;;;;;;;3.37;98.84;99571.75;676199;29;1296;-79
2022/04/09 00:33:28;;;;;;;8.02;2.85;;;;;;;3.38;99.21;99577.78;677336;29;1206;-79
2022/04/09 00:33:48;;;;;;;10.48;2.97;;;;;;;3.35;99.37;99581.22;676467;29;1253;-79
2022/04/09 00:34:08;;;;;;;11.50;2.80;;;;;;;3.34;99.86;99576.03;677314;29;4512;-79
2022/04/09 00:34:29;;;;;;;8.90;2.60;;;;;;;3.32;100.00;99582.91;677677;29;1266;-79
2022/04/09 00:34:49;;;;;;;10.00;2.80;;;;;;;3.31;99.96;99579.47;677102;29;907;-79
2022/04/09 00:35:09;;;;;;;9.03;2.63;;;;;;;3.32;99.92;99588.06;677831;29;1456;-79
2022/04/09 00:35:31;;;;;;;8.60;2.63;;;;;;;3.32;99.65;99583.75;676704;29;1963;-80
2022/04/09 00:35:51;;;;;;;8.70;2.77;;;;;;;3.35;100.00;99588.06;678550;29;1260;-80
2022/04/09 00:36:11;;;;;;;9.13;2.60;;;;;;;3.34;100.00;99588.94;682679;28;1428;-80
2022/04/09 00:36:32;;;;;;;6.70;2.37;;;;;;;3.32;100.00;99583.75;683634;28;1415;-79
2022/04/09 00:36:52;;;;;;;7.80;2.60;;;;;;;3.30;100.00;99587.19;685294;28;1738;-80
2022/04/09 00:37:13;;;;;;;7.10;2.53;;;;;;;3.33;100.00;99588.06;685164;28;4302;-79
2022/04/09 00:37:47;;;;;;;9.85;2.58;;;;;;;3.32;99.92;99588.06;684959;28;1460;-79
2022/04/09 00:38:07;;;;;;;8.68;3.00;;;;;;;3.46;99.89;99585.56;679053;29;1418;-79
2022/04/09 00:38:29;;;;;;;7.73;3.07;;;;;;;3.52;98.38;99589.06;677992;29;1206;-79
2022/04/09 00:38:50;;;;;;;8.35;3.00;;;;;;;3.49;98.90;99590.75;678660;28;1384;-79
2022/04/09 00:39:10;;;;;;;9.98;2.80;;;;;;;3.45;98.72;99594.16;679903;28;1422;-79
2022/04/09 00:39:30;;;;;;;8.70;2.60;;;;;;;3.43;98.93;99596.75;683084;28;1382;-79
2022/04/09 00:39:52;;;;;;;11.25;3.00;;;;;;;3.46;99.69;99588.16;679400;28;1467;-79
2022/04/09 00:40:15;;;;;;;13.27;3.25;;;;;;;3.55;99.48;99586.50;682955;28;4303;-79
2022/04/09 00:40:35;;;;;;;8.30;2.85;;;;;;;3.49;99.13;99590.75;680445;29;1039;-79
2022/04/09 00:40:56;;;;;;;8.18;2.63;;;;;;;3.46;98.78;99590.75;677365;28;1242;-79
2022/04/09 00:41:18;;;;;;;6.80;2.50;;;;;;;3.43;99.49;99596.75;674386;29;2208;-80
2022/04/09 00:41:41;;;;;;;8.27;2.70;;;;;;;3.38;99.72;99594.13;678576;28;1839;-79
2022/04/09 00:42:02;;;;;;;8.07;2.70;;;;;;;3.36;100.00;99598.41;676876;29;1391;-79
2022/04/09 00:42:23;;;;;;;8.88;2.78;;;;;;;3.33;100.00;99595.81;678271;29;1355;-79
2022/04/09 00:42:44;;;;;;;9.20;2.93;;;;;;;3.36;99.98;99597.56;675329;29;972;-79
2022/04/09 00:43:05;;;;;;;7.50;2.80;;;;;;;3.33;99.88;99600.97;679502;28;4310;-79
2022/04/09 00:43:26;;;;;;;8.10;2.70;;;;;;;3.33;100.00;99595.81;680844;28;1437;-79
2022/04/09 00:43:47;;;;;;;8.20;3.08;;;;;;;3.35;100.00;99609.63;680949;28;1415;-79
2022/04/09 00:44:17;;;;;;;8.15;2.72;;;;;;;3.37;100.00;99602.75;680163;28;1410;-80
2022/04/09 00:44:37;;;;;;;6.68;2.80;;;;;;;3.36;100.00;99606.16;681459;28;1293;-79
2022/04/09 00:44:58;;;;;;;8.30;2.80;;;;;;;3.35;100.00;99603.56;681931;28;1623;-79
2022/04/09 00:45:18;;;;;;;9.97;2.90;;;;;;;3.35;100.00;99608.75;681983;28;1532;-79
2022/04/09 00:45:40;;;;;;;7.43;2.80;;;;;;;3.34;100.00;99607.88;679453;28;1274;-79
2022/04/09 00:46:00;;;;;;;9.70;2.88;;;;;;;3.32;100.00;99611.31;678731;28;4305;-79
2022/04/09 00:46:21;;;;;;;7.63;2.70;;;;;;;3.31;100.00;99602.72;680219;28;4830;-79
2022/04/09 00:46:42;;;;;;;7.85;2.67;;;;;;;3.31;100.00;99613.03;677428;29;1600;-79
2022/04/09 00:47:02;;;;;;;6.90;2.93;;;;;;;3.27;100.00;99619.03;676230;29;1605;-78
2022/04/09 00:47:23;;;;;;;7.38;2.92;;;;;;;3.28;100.00;99613.03;672198;29;1585;-79
2022/04/09 00:47:44;;;;;;;7.43;2.53;;;;;;;3.27;100.00;99606.13;670656;29;1481;-79
2022/04/09 00:48:07;;;;;;;7.25;2.78;;;;;;;3.39;100.00;99615.66;676535;28;1386;-79
2022/04/09 00:48:27;;;;;;;10.68;3.20;;;;;;;3.36;100.00;99611.34;677139;29;1463;-79
2022/04/09 00:48:49;;;;;;;11.13;2.80;;;;;;;3.39;100.00;99611.38;677802;29;1508;-79
2022/04/09 00:49:10;;;;;;;8.02;2.83;;;;;;;3.36;100.00;99613.91;682177;28;4284;-79
2022/04/09 00:49:31;;;;;;;7.40;2.78;;;;;;;3.38;100.00;99614.81;677408;29;1373;-79
2022/04/09 00:49:52;;;;;;;8.68;2.90;;;;;;;3.35;100.00;99609.63;681176;28;3620;-79
2022/04/09 00:50:13;;;;;;;7.57;2.70;;;;;;;3.38;100.00;99613.97;681472;28;1355;-79
2022/04/09 00:50:33;;;;;;;9.00;2.92;;;;;;;3.34;100.00;99610.47;677183;29;1423;-79
2022/04/09 00:50:54;;;;;;;8.57;2.60;;;;;;;3.31;100.00;99618.22;673957;29;1383;-79
2022/04/09 00:51:15;;;;;;;9.75;2.95;;;;;;;3.30;100.00;99615.63;676381;29;1145;-79
2022/04/09 00:51:39;;;;;;;10.52;2.97;;;;;;;3.29;100.00;99619.03;676208;29;1337;-79
2022/04/09 00:52:02;;;;;;;9.02;3.35;;;;;;;3.28;100.00;99619.88;676598;29;4304;-79
2022/04/09 00:52:26;;;;;;;8.02;2.65;;;;;;;3.27;100.00;99629.38;682071;28;1323;-79
2022/04/09 00:52:49;;;;;;;8.18;2.83;;;;;;;3.27;100.00;99620.72;681568;28;1554;-79
2022/04/09 00:53:11;;;;;;;9.05;3.08;;;;;;;3.30;100.00;99626.81;683633;28;1453;-79
2022/04/09 00:53:35;;;;;;;8.27;3.10;;;;;;;3.32;100.00;99622.50;684376;28;1471;-79
2022/04/09 00:53:56;;;;;;;9.45;2.92;;;;;;;3.39;100.00;99623.41;681573;28;1302;-79
2022/04/09 00:54:19;;;;;;;10.30;3.10;;;;;;;3.36;100.00;99621.66;675946;29;1532;-79
2022/04/09 00:54:42;;;;;;;8.38;2.97;;;;;;;3.45;100.00;99617.44;676595;29;1376;-79
2022/04/09 00:55:04;;;;;;;11.18;3.20;;;;;;;3.41;100.00;99632.91;676811;29;4300;-79
2022/04/09 00:56:19;;;;;;;8.70;3.10;;;;;;;3.37;100.00;99632.88;677770;29;1613;-79
2022/04/09 00:56:41;;;;;;;8.15;2.78;;;;;;;3.31;100.00;99625.97;680822;28;1293;-79
2022/04/09 00:57:05;;;;;;;8.57;3.25;;;;;;;3.31;100.00;99640.56;681170;29;1343;-79
2022/04/09 00:57:26;;;;;;;7.78;2.60;;;;;;;3.30;100.00;99633.69;683926;28;1235;-79
2022/04/09 00:57:50;;;;;;;8.20;2.74;;;;;;;3.27;100.00;99631.94;678854;28;1378;-79
2022/04/09 00:58:14;;;;;;;8.98;3.20;;;;;;;3.31;100.00;99633.72;683454;28;4302;-79
2022/04/09 00:58:38;;;;;;;10.23;3.00;;;;;;;3.29;100.00;99635.41;680650;28;1434;-79
2022/04/09 00:59:02;;;;;;;8.15;3.20;;;;;;;3.27;100.00;99633.66;680790;28;1222;-79
2022/04/09 00:59:26;;;;;;;9.55;3.08;;;;;;;3.28;100.00;99633.69;678296;29;2307;-79
2022/04/09 00:59:50;;;;;;;7.30;2.65;;;;;;;3.34;100.00;99641.47;679645;28;1231;-79
2022/04/09 01:00:11;;;;;;;10.98;3.55;;;;;;;3.36;99.82;99639.75;681140;28;1296;-79
2022/04/09 01:00:31;;;;;;;11.00;3.30;;;;;;;3.34;100.00;99640.63;678329;29;1373;-79
2022/04/09 01:00:52;;;;;;;7.70;2.90;;;;;;;3.30;100.00;99644.03;681367;28;1322;-79
2022/04/09 01:01:14;;;;;;;9.15;3.15;;;;;;;3.29;100.00;99650.91;681911;28;4321;-79
2022/04/09 01:01:36;;;;;;;9.25;3.50;;;;;;;3.27;100.00;99639.69;685041;28;1451;-79
2022/04/09 01:01:57;;;;;;;10.52;3.28;;;;;;;3.28;100.00;99633.69;679147;28;1702;-79
2022/04/09 01:02:18;;;;;;;11.03;3.17;;;;;;;3.28;100.00;99638.84;676628;28;1515;-79
2022/04/09 01:02:40;;;;;;;11.98;2.97;;;;;;;3.25;100.00;99643.97;679947;28;1147;-79
2022/04/09 01:03:02;;;;;;;9.98;3.10;;;;;;;3.23;100.00;99645.69;679194;28;1235;-79
2022/04/09 01:03:22;;;;;;;9.93;3.28;;;;;;;3.18;100.00;99645.63;678648;28;1429;-79
2022/04/09 01:03:44;;;;;;;10.48;3.22;;;;;;;3.18;100.00;99648.22;681543;28;1072;-79
2022/04/09 01:04:07;;;;;;;10.13;3.13;;;;;;;3.17;100.00;99645.63;677227;28;4525;-79
2022/04/09 01:04:28;;;;;;;9.85;3.20;;;;;;;3.14;100.00;99646.44;682213;28;1670;-79
2022/04/09 01:04:49;;;;;;;8.50;3.10;;;;;;;3.14;100.00;99645.59;678926;29;1469;-79
2022/04/09 01:05:11;;;;;;;7.28;3.10;;;;;;;3.12;100.00;99652.47;677966;29;1439;-78
2022/04/09 01:05:32;;;;;;;10.80;3.53;;;;;;;3.09;100.00;99648.16;676798;29;1337;-79
2022/04/09 01:05:52;;;;;;;11.68;3.50;;;;;;;3.10;100.00;99656.75;680237;28;1529;-79
2022/04/09 01:06:13;;;;;;;10.63;3.20;;;;;;;3.13;100.00;99654.19;679853;29;1757;-79
2022/04/09 01:06:34;;;;;;;9.60;3.30;;;;;;;3.17;100.00;99649.09;677821;29;1604;-79
2022/04/09 01:06:56;;;;;;;9.10;3.15;;;;;;;3.14;100.00;99649.03;677476;29;4330;-79
2022/04/09 01:07:17;;;;;;;8.75;3.83;;;;;;;3.13;100.00;99651.59;671993;29;1520;-79
2022/04/09 01:07:38;;;;;;;9.52;3.15;;;;;;;3.11;100.00;99653.31;677891;29;2047;-79
2022/04/09 01:07:58;;;;;;;8.55;3.15;;;;;;;3.12;100.00;99647.31;680076;28;1508;-79
2022/04/09 01:08:19;;;;;;;7.65;3.10;;;;;;;3.15;100.00;99649.91;681442;28;1454;-78
2022/04/09 01:08:40;;;;;;;8.88;3.10;;;;;;;3.25;100.00;99646.56;683258;28;1584;-79
2022/04/09 01:09:02;;;;;;;9.30;3.10;;;;;;;3.21;100.00;99648.25;680091;28;1269;-79
2022/04/09 01:09:22;;;;;;;11.02;3.50;;;;;;;3.19;100.00;99654.25;681291;28;1589;-79
2022/04/09 01:09:45;;;;;;;10.40;3.30;;;;;;;3.26;100.00;99653.47;678542;29;1682;-79
2022/04/09 01:10:10;;;;;;;9.35;3.10;;;;;;;3.20;100.00;99650.84;677396;29;4295;-79
2022/04/09 01:10:31;;;;;;;9.50;3.20;;;;;;;3.18;100.00;99649.94;676933;29;2089;-79
2022/04/09 01:10:51;;;;;;;8.18;3.03;;;;;;;3.17;100.00;99655.94;677937;29;1455;-79
2022/04/09 01:11:14;;;;;;;9.57;3.22;;;;;;;3.11;100.00;99651.59;680231;29;1610;-79
2022/04/09 01:11:35;;;;;;;10.15;3.28;;;;;;;3.18;100.00;99662.84;678516;29;1492;-79
2022/04/09 01:11:56;;;;;;;9.85;3.20;;;;;;;3.22;100.00;99654.28;678200;29;1448;-78
2022/04/09 01:12:17;;;;;;;6.35;2.80;;;;;;;3.18;100.00;99662.84;678565;29;1234;-79
2022/04/09 01:12:37;;;;;;;10.43;4.00;;;;;;;3.13;100.00;99660.25;677979;29;1922;-78
2022/04/09 01:12:59;;;;;;;11.30;4.32;;;;;;;3.10;100.00;99660.19;674772;29;4341;-78
2022/04/09 01:13:20;;;;;;;7.25;3.10;;;;;;;3.08;100.00;99661.06;678330;29;1445;-79
2022/04/09 01:13:42;;;;;;;9.10;2.97;;;;;;;3.03;100.00;99664.47;678882;28;1448;-79
2022/04/09 01:14:03;;;;;;;10.85;3.28;;;;;;;3.06;100.00;99668.78;680106;28;1160;-79
2022/04/09 01:14:24;;;;;;;8.27;3.15;;;;;;;3.15;100.00;99666.28;680157;29;1379;-78
2022/04/09 01:14:45;;;;;;;9.30;3.20;;;;;;;3.18;100.00;99662.84;680963;28;1553;-79
2022/04/09 01:15:07;;;;;;;10.40;3.30;;;;;;;3.15;100.00;99662.84;683686;28;1211;-79
2022/04/09 01:15:29;;;;;;;11.02;3.22;;;;;;;3.17;100.00;99671.44;682743;28;1907;-78
2022/04/09 01:15:49;;;;;;;9.82;3.20;;;;;;;3.14;100.00;99666.25;680941;28;1207;-79
2022/04/09 01:16:10;;;;;;;10.03;3.17;;;;;;;3.17;100.00;99676.63;677139;29;4306;-79
2022/04/09 01:16:30;;;;;;;10.93;3.22;;;;;;;3.14;100.00;99666.25;678701;29;1545;-79
2022/04/09 01:16:54;;;;;;;8.40;3.20;;;;;;;3.10;100.00;99674.84;675517;29;1518;-79
2022/04/09 01:17:14;;;;;;;9.43;3.08;;;;;;;3.06;100.00;99679.97;677118;29;1429;-78
2022/04/09 01:17:36;;;;;;;10.00;3.00;;;;;;;3.05;100.00;99672.22;679654;28;1413;-79
2022/04/09 01:18:00;;;;;;;8.88;3.22;;;;;;;3.12;100.00;99678.31;685401;28;1843;-79
2022/04/09 01:18:21;;;;;;;10.70;3.20;;;;;;;3.10;100.00;99674.84;679372;28;1344;-79
2022/04/09 01:18:48;;;;;;;9.82;3.60;;;;;;;3.09;100.00;99678.25;675650;29;987;-79
2022/04/09 01:19:08;;;;;;;8.43;3.60;;;;;;;3.06;100.00;99676.53;676456;29;4302;-79
2022/04/09 01:19:32;;;;;;;9.35;3.40;;;;;;;3.02;100.00;99678.22;675950;29;1617;-79
2022/04/09 01:19:52;;;;;;;9.10;3.33;;;;;;;3.09;100.00;99678.25;682668;28;1550;-79
2022/04/09 01:20:16;;;;;;;8.67;3.30;;;;;;;3.09;100.00;99678.25;686705;28;1632;-79
2022/04/09 01:20:36;;;;;;;17.42;4.30;;;;;;;3.01;100.00;99679.06;681090;28;1559;-79
2022/04/09 01:20:58;;;;;;;9.75;3.20;;;;;;;2.98;100.00;99676.44;682484;28;1251;-79
2022/04/09 01:21:19;;;;;;;9.48;3.15;;;;;;;2.99;100.00;99682.47;683503;28;1604;-78
2022/04/09 01:21:40;;;;;;;9.40;3.37;;;;;;;3.00;100.00;99684.19;683554;28;1543;-79
2022/04/09 01:22:00;;;;;;;9.98;3.60;;;;;;;2.99;100.00;99688.50;684508;28;4341;-79
2022/04/09 01:22:22;;;;;;;9.70;3.25;;;;;;;2.96;100.00;99687.59;680643;28;1476;-78
2022/04/09 01:22:43;;;;;;;11.07;3.30;;;;;;;2.97;100.00;99685.03;683056;28;1345;-79
2022/04/09 01:23:03;;;;;;;10.00;3.25;;;;;;;2.96;100.00;99685.88;680068;28;1495;-79
2022/04/09 01:23:25;;;;;;;9.97;2.90;;;;;;;2.92;100.00;99684.09;679708;29;1347;-79
2022/04/09 01:23:46;;;;;;;9.50;2.90;;;;;;;2.93;100.00;99693.59;678948;29;1547;-78
2022/04/09 01:24:06;;;;;;;10.13;3.10;;;;;;;2.93;100.00;99687.56;678912;29;1206;-79
2022/04/09 01:24:31;;;;;;;8.93;3.40;;;;;;;2.94;100.00;99690.16;682422;28;1587;-78
2022/04/09 01:24:51;;;;;;;9.48;3.50;;;;;;;2.94;100.00;99695.34;681253;28;1370;-78
2022/04/09 01:25:11;;;;;;;9.23;3.47;;;;;;;2.95;100.00;99696.19;675290;29;4562;-79
2022/04/09 01:25:33;;;;;;;9.32;3.40;;;;;;;2.97;100.00;99699.66;676789;29;1398;-79
2022/04/09 01:25:58;;;;;;;12.13;3.33;;;;;;;2.99;100.00;99691.09;678064;29;1652;-79
2022/04/09 01:26:18;;;;;;;11.38;3.22;;;;;;;2.96;100.00;99693.63;680209;28;1867;-79
2022/04/09 01:26:39;;;;;;;9.52;3.30;;;;;;;3.01;100.00;99697.13;677551;29;1498;-79
2022/04/09 01:27:10;;;;;;;10.48;3.33;;;;;;;2.99;100.00;99693.69;681842;28;1476;-79
2022/04/09 01:27:32;;;;;;;7.88;3.20;;;;;;;3.05;100.00;99693.72;680943;28;1605;-78
2022/04/09 01:27:52;;;;;;;8.65;3.17;;;;;;;3.03;100.00;99699.72;684249;28;1587;-78
2022/04/09 01:28:13;;;;;;;10.60;3.47;;;;;;;3.00;100.00;99700.53;684965;28;4270;-79
2022/04/09 01:28:35;;;;;;;9.55;3.15;;;;;;;2.99;100.00;99701.41;684742;28;1387;-79
2022/04/09 01:28:55;;;;;;;10.55;3.10;;;;;;;2.96;100.00;99703.94;683788;28;1557;-79
2022/04/09 01:29:16;;;;;;;11.17;3.20;;;;;;;2.97;100.00;99690.19;682560;28;1621;-79
2022/04/09 01:29:36;;;;;;;8.80;3.08;;;;;;;3.04;100.00;99691.97;683327;28;1765;-79
2022/04/09 01:29:58;;;;;;;9.50;3.10;;;;;;;3.05;100.00;99698.03;683029;28;1780;-79
2022/04/09 01:30:19;;;;;;;9.88;3.00;;;;;;;3.03;100.00;99705.78;684148;28;1075;-79
2022/04/09 01:30:40;;;;;;;10.80;3.13;;;;;;;3.05;100.00;99701.47;683540;28;1595;-79
2022/04/09 01:31:00;;;;;;;8.38;3.25;;;;;;;3.08;100.00;99707.53;683065;28;4330;-79
2022/04/09 01:31:21;;;;;;;9.77;3.33;;;;;;;3.04;100.00;99707.47;681533;28;1406;-79
2022/04/09 01:31:42;;;;;;;10.85;3.38;;;;;;;3.06;100.00;99703.22;679625;28;1705;-79
2022/04/09 01:32:03;;;;;;;9.65;3.22;;;;;;;2.99;100.00;99701.41;676828;29;1413;-79
2022/04/09 01:32:23;;;;;;;10.47;3.40;;;;;;;2.98;100.00;99698.81;678204;29;1474;-79
2022/04/09 01:32:44;;;;;;;10.57;3.10;;;;;;;2.95;100.00;99699.66;683491;28;1386;-78
2022/04/09 01:33:05;;;;;;;8.52;2.80;;;;;;;3.01;100.00;99699.72;684871;28;1461;-78
2022/04/09 01:33:25;;;;;;;7.97;3.00;;;;;;;3.01;100.00;99699.72;679212;28;1207;-79
2022/04/09 01:33:46;;;;;;;9.20;3.20;;;;;;;2.99;100.00;99708.28;680179;28;1394;-79
2022/04/09 01:34:07;;;;;;;10.73;3.10;;;;;;;2.98;100.00;99704.00;678851;28;4315;-79
2022/04/09 01:34:27;;;;;;;9.02;3.20;;;;;;;2.98;100.00;99707.44;679209;28;1607;-79
2022/04/09 01:34:48;;;;;;;8.25;3.10;;;;;;;3.02;100.00;99703.19;682762;28;1501;-79
2022/04/09 01:35:09;;;;;;;8.43;3.20;;;;;;;3.00;100.00;99710.88;681318;28;1531;-79
2022/04/09 01:35:30;;;;;;;9.48;3.00;;;;;;;2.99;100.00;99711.75;680254;28;1918;-79
2022/04/09 01:35:51;;;;;;;9.43;3.00;;;;;;;3.08;100.00;99710.97;678097;29;1714;-78
2022/04/09 01:36:14;;;;;;;9.75;3.10;;;;;;;3.06;100.00;99720.44;679775;29;1461;-78
2022/04/09 01:36:35;;;;;;;10.18;3.15;;;;;;;3.02;100.00;99706.59;679813;28;1598;-79
2022/04/09 01:36:55;;;;;;;9.73;3.50;;;;;;;3.02;100.00;99714.34;678349;29;4334;-79
2022/04/09 01:37:17;;;;;;;9.77;3.45;;;;;;;3.11;100.00;99710.13;675919;29;1776;-79
2022/04/09 01:37:37;;;;;;;10.70;3.10;;;;;;;3.09;100.00;99715.28;675553;29;1559;-79
2022/04/09 01:37:58;;;;;;;11.40;3.33;;;;;;;3.08;100.00;99718.72;680146;29;1768;-79
2022/04/09 01:38:18;;;;;;;9.45;3.20;;;;;;;3.01;100.00;99717.78;679234;29;1410;-78
2022/04/09 01:38:40;;;;;;;10.93;3.22;;;;;;;2.98;100.00;99710.00;679071;29;1392;-79
2022/04/09 01:39:01;;;;;;;8.13;2.95;;;;;;;2.95;100.00;99725.47;678523;29;1399;-79
2022/04/09 01:39:22;;;;;;;9.63;3.30;;;;;;;2.94;100.00;99730.63;682159;28;1717;-79
2022/04/09 01:39:43;;;;;;;9.15;2.97;;;;;;;2.90;100.00;99719.38;680455;28;1462;-79
2022/04/09 01:40:04;;;;;;;9.33;3.40;;;;;;;2.91;100.00;99721.13;681892;28;4290;-79
2022/04/09 01:40:24;;;;;;;10.20;3.13;;;;;;;2.89;100.00;99720.22;686404;28;1466;-79
2022/04/09 01:40:45;;;;;;;9.83;3.00;;;;;;;2.88;100.00;99726.22;679069;29;1361;-79
2022/04/09 01:41:06;;;;;;;8.40;2.80;;;;;;;3.01;100.00;99717.78;680988;28;1436;-78
2022/04/09 01:41:34;;;;;;;10.30;3.30;;;;;;;2.99;100.00;99724.66;680305;29;1248;-79
2022/04/09 01:41:57;;;;;;;9.10;3.10;;;;;;;2.99;100.00;99724.66;681957;28;1222;-79
2022/04/09 01:42:21;;;;;;;8.65;3.15;;;;;;;2.98;100.00;99722.91;680898;28;811;-78
2022/04/09 01:42:41;;;;;;;8.43;3.10;;;;;;;2.96;100.00;99722.03;683411;28;1822;-78
2022/04/09 01:43:02;;;;;;;9.83;3.07;;;;;;;2.91;100.00;99723.72;683718;28;4316;-79
2022/04/09 01:43:22;;;;;;;10.70;3.20;;;;;;;2.96;100.00;99719.44;682433;28;1185;-79
2022/04/09 01:43:43;;;;;;;10.57;3.20;;;;;;;2.94;100.00;99722.88;677291;29;1356;-79